sensor_id;sensor_type;location;lat;lon;timestamp;pressure;altitude;pressure_sealevel;temperature;humidity
60015;BME280;45867;52.480;6.056;2023-02-16T00:01:34;102333.19;;;5.33;100.00
60015;BME280;45867;52.480;6.056;2023-02-16T00:03:59;102326.50;;;5.31;100.00
60015;BME280;45867;52.480;6.056;2023-02-16T00:06:27;102328.13;;;5.32;100.00
60015;BME280;45867;52.480;6.056;2023-02-16T00:08:54;102319.16;;;5.26;100.00
60015;BME280;45867;52.480;6.056;2023-02-16T00:11:32;102326.31;;;5.39;100.00
60015;BME280;45867;52.480;6.056;2023-02-16T00:14:18;102317.25;;;5.42;100.00
60015;BME280;45867;52.480;6.056;2023-02-16T00:16:47;102322.75;;;5.53;100.00
60015;BME280;45867;52.480;6.056;2023-02-16T00:19:27;102321.13;;;5.46;100.00
60015;BME280;45867;52.480;6.056;2023-02-16T00:21:56;102323.78;;;5.52;100.00
60015;BME280;45867;52.480;6.056;2023-02-16T00:24:24;102314.44;;;5.50;100.00
60015;BME280;45867;52.480;6.056;2023-02-16T00:26:52;102315.03;;;5.45;100.00
60015;BME280;45867;52.480;6.056;2023-02-16T00:29:35;102311.41;;;5.46;100.00
60015;BME280;45867;52.480;6.056;2023-02-16T00:32:03;102312.94;;;5.34;100.00
60015;BME280;45867;52.480;6.056;2023-02-16T00:34:33;102324.31;;;5.41;100.00
60015;BME280;45867;52.480;6.056;2023-02-16T00:37:04;102311.97;;;5.42;100.00
60015;BME280;45867;52.480;6.056;2023-02-16T00:39:30;102307.50;;;5.36;100.00
60015;BME280;45867;52.480;6.056;2023-02-16T00:41:59;102307.69;;;5.34;100.00
60015;BME280;45867;52.480;6.056;2023-02-16T00:44:38;102315.34;;;5.29;100.00
60015;BME280;45867;52.480;6.056;2023-02-16T00:47:38;102315.75;;;5.26;100.00
60015;BME280;45867;52.480;6.056;2023-02-16T00:50:26;102310.41;;;5.12;100.00
60015;BME280;45867;52.480;6.056;2023-02-16T00:52:52;102307.44;;;5.22;100.00
60015;BME280;45867;52.480;6.056;2023-02-16T00:55:22;102312.06;;;5.20;100.00
60015;BME280;45867;52.480;6.056;2023-02-16T00:57:51;102314.91;;;5.19;100.00
60015;BME280;45867;52.480;6.056;2023-02-16T01:00:23;102299.09;;;5.12;100.00
60015;BME280;45867;52.480;6.056;2023-02-16T01:02:50;102302.59;;;5.26;100.00
60015;BME280;45867;52.480;6.056;2023-02-16T01:05:17;102299.28;;;5.10;100.00
60015;BME280;45867;52.480;6.056;2023-02-16T01:07:43;102290.16;;;5.06;100.00
60015;BME280;45867;52.480;6.056;2023-02-16T01:10:29;102297.63;;;5.03;100.00
60015;BME280;45867;52.480;6.056;2023-02-16T01:13:13;102302.63;;;4.98;100.00
60015;BME280;45867;52.480;6.056;2023-02-16T01:15:40;102299.22;;;4.97;100.00
60015;BME280;45867;52.480;6.056;2023-02-16T01:18:06;102303.84;;;4.95;100.00
60015;BME280;45867;52.480;6.056;2023-02-16T01:20:33;102306.13;;;5.05;100.00
60015;BME280;45867;52.480;6.056;2023-02-16T01:23:01;102299.38;;;4.96;100.00
60015;BME280;45867;52.480;6.056;2023-02-16T01:25:26;102299.22;;;4.97;100.00
60015;BME280;45867;52.480;6.056;2023-02-16T01:27:52;102304.47;;;4.97;100.00
60015;BME280;45867;52.480;6.056;2023-02-16T01:30:20;102306.47;;;4.95;100.00
60015;BME280;45867;52.480;6.056;2023-02-16T01:32:47;102293.56;;;5.00;100.00
60015;BME280;45867;52.480;6.056;2023-02-16T01:35:18;102295.78;;;4.97;100.00
60015;BME280;45867;52.480;6.056;2023-02-16T01:37:44;102280.97;;;4.89;100.00
60015;BME280;45867;52.480;6.056;2023-02-16T01:40:34;102289.50;;;4.98;100.00
60015;BME280;45867;52.480;6.056;2023-02-16T01:43:23;102285.59;;;4.87;100.00
60015;BME280;45867;52.480;6.056;2023-02-16T01:46:06;102287.19;;;4.81;100.00
60015;BME280;45867;52.480;6.056;2023-02-16T01:48:34;102295.03;;;4.75;100.00
60015;BME280;45867;52.480;6.056;2023-02-16T01:51:14;102277.44;;;4.75;100.00
60015;BME280;45867;52.480;6.056;2023-02-16T01:53:45;102284.06;;;4.71;100.00
60015;BME280;45867;52.480;6.056;2023-02-16T01:56:42;102280.22;;;4.67;100.00
60015;BME280;45867;52.480;6.056;2023-02-16T01:59:19;102277.09;;;4.57;100.00
60015;BME280;45867;52.480;6.056;2023-02-16T02:02:02;102273.41;;;4.51;100.00
60015;BME280;45867;52.480;6.056;2023-02-16T02:04:34;102268.84;;;4.60;100.00
60015;BME280;45867;52.480;6.056;2023-02-16T02:07:27;102261.34;;;4.57;100.00
60015;BME280;45867;52.480;6.056;2023-02-16T02:09:59;102269.50;;;4.68;100.00
60015;BME280;45867;52.480;6.056;2023-02-16T02:12:48;102270.28;;;4.62;100.00
60015;BME280;45867;52.480;6.056;2023-02-16T02:15:16;102260.97;;;4.60;100.00
60015;BME280;45867;52.480;6.056;2023-02-16T02:17:43;102256.38;;;4.40;100.00
60015;BME280;45867;52.480;6.056;2023-02-16T02:20:37;102255.97;;;4.43;100.00
60015;BME280;45867;52.480;6.056;2023-02-16T02:35:03;102225.59;;;4.56;100.00
60015;BME280;45867;52.480;6.056;2023-02-16T02:38:10;102232.59;;;4.77;100.00
60015;BME280;45867;52.480;6.056;2023-02-16T02:43:25;102243.53;;;4.52;100.00
60015;BME280;45867;52.480;6.056;2023-02-16T02:48:35;102237.88;;;4.55;100.00
60015;BME280;45867;52.480;6.056;2023-02-16T02:56:55;102224.19;;;4.60;100.00
60015;BME280;45867;52.480;6.056;2023-02-16T02:59:44;102225.66;;;4.69;100.00
60015;BME280;45867;52.480;6.056;2023-02-16T03:02:32;102225.16;;;4.80;100.00
60015;BME280;45867;52.480;6.056;2023-02-16T03:05:02;102229.47;;;4.95;100.00
60015;BME280;45867;52.480;6.056;2023-02-16T03:07:28;102209.19;;;4.82;100.00
60015;BME280;45867;52.480;6.056;2023-02-16T03:10:13;102214.50;;;4.88;100.00
60015;BME280;45867;52.480;6.056;2023-02-16T03:12:59;102216.53;;;4.93;100.00
60015;BME280;45867;52.480;6.056;2023-02-16T03:15:27;102208.63;;;4.93;100.00
60015;BME280;45867;52.480;6.056;2023-02-16T03:17:55;102213.72;;;5.01;100.00
60015;BME280;45867;52.480;6.056;2023-02-16T03:20:41;102213.16;;;5.06;100.00
60015;BME280;45867;52.480;6.056;2023-02-16T03:23:28;102211.78;;;5.17;100.00
60015;BME280;45867;52.480;6.056;2023-02-16T03:26:14;102217.63;;;5.12;100.00
60015;BME280;45867;52.480;6.056;2023-02-16T03:29:00;102209.97;;;5.17;100.00
60015;BME280;45867;52.480;6.056;2023-02-16T03:31:46;102210.59;;;5.26;100.00
60015;BME280;45867;52.480;6.056;2023-02-16T03:34:12;102214.44;;;5.23;100.00
60015;BME280;45867;52.480;6.056;2023-02-16T03:36:40;102209.41;;;5.28;100.00
60015;BME280;45867;52.480;6.056;2023-02-16T03:39:07;102221.34;;;5.31;100.00
60015;BME280;45867;52.480;6.056;2023-02-16T03:41:34;102213.47;;;5.31;100.00
60015;BME280;45867;52.480;6.056;2023-02-16T03:44:02;102219.34;;;5.33;100.00
60015;BME280;45867;52.480;6.056;2023-02-16T03:46:27;102207.81;;;5.27;100.00
60015;BME280;45867;52.480;6.056;2023-02-16T03:48:53;102208.59;;;5.21;100.00
60015;BME280;45867;52.480;6.056;2023-02-16T03:51:18;102209.22;;;5.30;100.00
60015;BME280;45867;52.480;6.056;2023-02-16T03:53:43;102207.22;;;5.39;100.00
60015;BME280;45867;52.480;6.056;2023-02-16T03:56:09;102213.16;;;5.54;100.00
60015;BME280;45867;52.480;6.056;2023-02-16T03:58:36;102204.25;;;5.55;100.00
60015;BME280;45867;52.480;6.056;2023-02-16T04:01:01;102205.66;;;5.57;100.00
60015;BME280;45867;52.480;6.056;2023-02-16T04:03:26;102198.44;;;5.73;100.00
60015;BME280;45867;52.480;6.056;2023-02-16T04:05:52;102200.66;;;5.83;100.00
60015;BME280;45867;52.480;6.056;2023-02-16T04:08:18;102192.56;;;5.84;100.00
60015;BME280;45867;52.480;6.056;2023-02-16T04:10:43;102186.91;;;5.87;100.00
60015;BME280;45867;52.480;6.056;2023-02-16T04:13:09;102210.16;;;5.84;100.00
60015;BME280;45867;52.480;6.056;2023-02-16T04:15:34;102204.53;;;5.87;100.00
60015;BME280;45867;52.480;6.056;2023-02-16T04:18:00;102203.34;;;5.96;100.00
60015;BME280;45867;52.480;6.056;2023-02-16T04:20:30;102202.31;;;5.97;100.00
60015;BME280;45867;52.480;6.056;2023-02-16T04:22:55;102203.94;;;6.05;100.00
60015;BME280;45867;52.480;6.056;2023-02-16T04:25:40;102199.06;;;6.08;100.00
60015;BME280;45867;52.480;6.056;2023-02-16T04:28:05;102205.75;;;6.24;100.00
60015;BME280;45867;52.480;6.056;2023-02-16T04:30:31;102198.28;;;6.21;100.00
60015;BME280;45867;52.480;6.056;2023-02-16T04:32:56;102197.69;;;6.26;100.00
60015;BME280;45867;52.480;6.056;2023-02-16T04:35:23;102188.78;;;6.20;100.00
60015;BME280;45867;52.480;6.056;2023-02-16T04:37:48;102192.03;;;6.22;100.00
60015;BME280;45867;52.480;6.056;2023-02-16T04:40:15;102197.06;;;6.30;100.00
60015;BME280;45867;52.480;6.056;2023-02-16T04:42:42;102202.31;;;6.37;100.00
60015;BME280;45867;52.480;6.056;2023-02-16T04:45:08;102204.16;;;6.30;100.00
60015;BME280;45867;52.480;6.056;2023-02-16T04:47:34;102198.69;;;6.31;100.00
60015;BME280;45867;52.480;6.056;2023-02-16T04:49:59;102205.97;;;6.36;100.00
60015;BME280;45867;52.480;6.056;2023-02-16T04:52:25;102196.25;;;6.36;100.00
60015;BME280;45867;52.480;6.056;2023-02-16T04:54:50;102197.66;;;6.39;100.00
60015;BME280;45867;52.480;6.056;2023-02-16T04:57:16;102194.00;;;6.40;100.00
60015;BME280;45867;52.480;6.056;2023-02-16T04:59:43;102184.91;;;6.29;100.00
60015;BME280;45867;52.480;6.056;2023-02-16T05:02:08;102181.66;;;6.27;100.00
60015;BME280;45867;52.480;6.056;2023-02-16T05:04:34;102184.72;;;6.31;100.00
60015;BME280;45867;52.480;6.056;2023-02-16T05:06:59;102191.41;;;6.33;100.00
60015;BME280;45867;52.480;6.056;2023-02-16T05:09:25;102194.81;;;6.40;100.00
60015;BME280;45867;52.480;6.056;2023-02-16T05:11:50;102177.81;;;6.36;100.00
60015;BME280;45867;52.480;6.056;2023-02-16T05:14:35;102194.81;;;6.40;100.00
60015;BME280;45867;52.480;6.056;2023-02-16T05:17:21;102187.72;;;6.48;100.00
60015;BME280;45867;52.480;6.056;2023-02-16T05:19:49;102174.56;;;6.48;100.00
60015;BME280;45867;52.480;6.056;2023-02-16T05:22:15;102185.28;;;6.53;100.00
60015;BME280;45867;52.480;6.056;2023-02-16T05:24:41;102181.63;;;6.54;100.00
60015;BME280;45867;52.480;6.056;2023-02-16T05:27:09;102178.19;;;6.53;100.00
60015;BME280;45867;52.480;6.056;2023-02-16T05:29:35;102185.69;;;6.56;100.00
60015;BME280;45867;52.480;6.056;2023-02-16T05:32:00;102168.69;;;6.52;100.00
60015;BME280;45867;52.480;6.056;2023-02-16T05:34:26;102183.66;;;6.58;100.00
60015;BME280;45867;52.480;6.056;2023-02-16T05:36:51;102170.09;;;6.48;100.00
60015;BME280;45867;52.480;6.056;2023-02-16T05:39:17;102184.50;;;6.52;100.00
60015;BME280;45867;52.480;6.056;2023-02-16T05:41:43;102179.22;;;6.45;100.00
60015;BME280;45867;52.480;6.056;2023-02-16T05:44:09;102178.81;;;6.55;100.00
60015;BME280;45867;52.480;6.056;2023-02-16T05:46:36;102181.22;;;6.57;100.00
60015;BME280;45867;52.480;6.056;2023-02-16T05:49:03;102172.75;;;6.55;100.00
60015;BME280;45867;52.480;6.056;2023-02-16T05:51:28;102171.50;;;6.57;100.00
60015;BME280;45867;52.480;6.056;2023-02-16T05:53:55;102173.13;;;6.52;100.00
60015;BME280;45867;52.480;6.056;2023-02-16T05:56:21;102173.34;;;6.50;100.00
60015;BME280;45867;52.480;6.056;2023-02-16T05:58:47;102165.88;;;6.47;100.00
60015;BME280;45867;52.480;6.056;2023-02-16T06:01:13;102166.88;;;6.53;100.00
60015;BME280;45867;52.480;6.056;2023-02-16T06:03:38;102156.53;;;6.44;100.00
60015;BME280;45867;52.480;6.056;2023-02-16T06:06:05;102165.22;;;6.58;100.00
60015;BME280;45867;52.480;6.056;2023-02-16T06:08:32;102151.47;;;6.50;100.00
60015;BME280;45867;52.480;6.056;2023-02-16T06:10:58;102165.22;;;6.52;100.00
60015;BME280;45867;52.480;6.056;2023-02-16T06:13:24;102163.22;;;6.47;100.00
60015;BME280;45867;52.480;6.056;2023-02-16T06:15:53;102160.00;;;6.38;100.00
60015;BME280;45867;52.480;6.056;2023-02-16T06:18:18;102156.75;;;6.43;100.00
60015;BME280;45867;52.480;6.056;2023-02-16T06:20:44;102181.66;;;6.47;100.00
60015;BME280;45867;52.480;6.056;2023-02-16T06:23:11;102191.38;;;6.47;100.00
60015;BME280;45867;52.480;6.056;2023-02-16T06:25:40;102194.41;;;6.50;100.00
60015;BME280;45867;52.480;6.056;2023-02-16T06:28:06;102200.50;;;6.44;100.00
60015;BME280;45867;52.480;6.056;2023-02-16T06:30:32;102178.44;;;6.32;100.00
60015;BME280;45867;52.480;6.056;2023-02-16T06:32:59;102194.00;;;6.40;100.00
60015;BME280;45867;52.480;6.056;2023-02-16T06:35:25;102210.63;;;6.40;100.00
60015;BME280;45867;52.480;6.056;2023-02-16T06:37:50;102195.03;;;6.32;100.00
60015;BME280;45867;52.480;6.056;2023-02-16T06:40:16;102192.81;;;6.29;100.00
60015;BME280;45867;52.480;6.056;2023-02-16T06:42:42;102208.41;;;6.31;100.00
60015;BME280;45867;52.480;6.056;2023-02-16T06:45:08;102213.69;;;6.31;100.00
60015;BME280;45867;52.480;6.056;2023-02-16T06:47:35;102201.31;;;6.25;100.00
60015;BME280;45867;52.480;6.056;2023-02-16T06:50:00;102193.81;;;6.21;100.00
60015;BME280;45867;52.480;6.056;2023-02-16T06:52:26;102200.69;;;6.16;100.00
60015;BME280;45867;52.480;6.056;2023-02-16T06:54:51;102202.53;;;6.15;100.00
60015;BME280;45867;52.480;6.056;2023-02-16T06:57:16;102207.59;;;6.23;100.00
60015;BME280;45867;52.480;6.056;2023-02-16T06:59:42;102190.78;;;6.25;100.00
60015;BME280;45867;52.480;6.056;2023-02-16T07:02:08;102189.97;;;6.24;100.00
60015;BME280;45867;52.480;6.056;2023-02-16T07:04:34;102194.25;;;6.25;100.00
60015;BME280;45867;52.480;6.056;2023-02-16T07:06:59;102193.22;;;6.26;100.00
60015;BME280;45867;52.480;6.056;2023-02-16T07:09:25;102191.38;;;6.27;100.00
60015;BME280;45867;52.480;6.056;2023-02-16T07:11:50;102198.25;;;6.41;100.00
60015;BME280;45867;52.480;6.056;2023-02-16T07:14:19;102184.09;;;6.35;100.00
60015;BME280;45867;52.480;6.056;2023-02-16T07:16:44;102182.66;;;6.46;100.00
60015;BME280;45867;52.480;6.056;2023-02-16T07:19:10;102194.44;;;6.37;100.00
60015;BME280;45867;52.480;6.056;2023-02-16T07:21:35;102188.75;;;6.40;100.00
60015;BME280;45867;52.480;6.056;2023-02-16T07:24:00;102189.34;;;6.49;100.00
60015;BME280;45867;52.480;6.056;2023-02-16T07:26:26;102189.34;;;6.49;100.00
60015;BME280;45867;52.480;6.056;2023-02-16T07:28:52;102199.28;;;6.47;100.00
60015;BME280;45867;52.480;6.056;2023-02-16T07:31:18;102185.09;;;6.34;100.00
60015;BME280;45867;52.480;6.056;2023-02-16T07:33:43;102196.25;;;6.50;100.00
60015;BME280;45867;52.480;6.056;2023-02-16T07:36:10;102211.63;;;6.53;100.00
60015;BME280;45867;52.480;6.056;2023-02-16T07:38:37;102201.72;;;6.55;100.00
60015;BME280;45867;52.480;6.056;2023-02-16T07:41:03;102211.00;;;6.64;100.00
60015;BME280;45867;52.480;6.056;2023-02-16T07:43:28;102208.34;;;6.71;100.00
60015;BME280;45867;52.480;6.056;2023-02-16T07:45:54;102203.94;;;6.58;100.00
60015;BME280;45867;52.480;6.056;2023-02-16T07:48:19;102212.00;;;6.70;100.00
60015;BME280;45867;52.480;6.056;2023-02-16T07:50:45;102212.41;;;6.73;100.00
60015;BME280;45867;52.480;6.056;2023-02-16T07:53:10;102209.56;;;6.75;100.00
60015;BME280;45867;52.480;6.056;2023-02-16T07:55:39;102210.97;;;6.71;100.00
60015;BME280;45867;52.480;6.056;2023-02-16T07:58:05;102220.09;;;6.75;100.00
60015;BME280;45867;52.480;6.056;2023-02-16T08:00:31;102210.38;;;6.75;100.00
60015;BME280;45867;52.480;6.056;2023-02-16T08:02:57;102221.28;;;6.79;100.00
60015;BME280;45867;52.480;6.056;2023-02-16T08:05:22;102217.84;;;6.78;100.00
60015;BME280;45867;52.480;6.056;2023-02-16T08:07:48;102217.25;;;6.83;100.00
60015;BME280;45867;52.480;6.056;2023-02-16T08:10:14;102222.28;;;6.91;100.00
60015;BME280;45867;52.480;6.056;2023-02-16T08:12:40;102224.31;;;6.96;100.00
60015;BME280;45867;52.480;6.056;2023-02-16T08:15:06;102216.22;;;6.91;100.00
60015;BME280;45867;52.480;6.056;2023-02-16T08:17:32;102235.25;;;6.99;100.00
60015;BME280;45867;52.480;6.056;2023-02-16T08:19:58;102220.66;;;6.90;100.00
60015;BME280;45867;52.480;6.056;2023-02-16T08:22:24;102235.44;;;7.04;100.00
60015;BME280;45867;52.480;6.056;2023-02-16T08:24:50;102234.84;;;7.02;100.00
60015;BME280;45867;52.480;6.056;2023-02-16T08:27:15;102233.81;;;7.03;100.00
60015;BME280;45867;52.480;6.056;2023-02-16T08:29:42;102233.59;;;6.98;100.00
60015;BME280;45867;52.480;6.056;2023-02-16T08:32:10;102230.97;;;6.98;100.00
60015;BME280;45867;52.480;6.056;2023-02-16T08:34:37;102240.72;;;6.98;100.00
60015;BME280;45867;52.480;6.056;2023-02-16T08:37:03;102237.69;;;6.94;100.00
60015;BME280;45867;52.480;6.056;2023-02-16T08:39:30;102243.56;;;6.96;100.00
60015;BME280;45867;52.480;6.056;2023-02-16T08:41:58;102245.56;;;7.01;100.00
60015;BME280;45867;52.480;6.056;2023-02-16T08:44:24;102227.75;;;6.96;100.00
60015;BME280;45867;52.480;6.056;2023-02-16T08:46:53;102243.75;;;7.01;100.00
60015;BME280;45867;52.480;6.056;2023-02-16T08:49:20;102251.25;;;6.98;100.00
60015;BME280;45867;52.480;6.056;2023-02-16T08:51:49;102247.00;;;6.97;100.00
60015;BME280;45867;52.480;6.056;2023-02-16T08:54:21;102255.72;;;6.97;100.00
60015;BME280;45867;52.480;6.056;2023-02-16T08:56:47;102254.72;;;6.92;100.00
60015;BME280;45867;52.480;6.056;2023-02-16T08:59:18;102253.09;;;6.97;100.00
60015;BME280;45867;52.480;6.056;2023-02-16T09:01:45;102257.13;;;7.00;100.00
60015;BME280;45867;52.480;6.056;2023-02-16T09:04:11;102252.25;;;7.03;100.00
60015;BME280;45867;52.480;6.056;2023-02-16T09:06:38;102256.31;;;7.06;100.00
60015;BME280;45867;52.480;6.056;2023-02-16T09:09:05;102252.84;;;7.05;100.00
60015;BME280;45867;52.480;6.056;2023-02-16T09:11:31;102256.72;;;7.03;100.00
60015;BME280;45867;52.480;6.056;2023-02-16T09:13:57;102256.53;;;7.04;100.00
60015;BME280;45867;52.480;6.056;2023-02-16T09:16:23;102265.44;;;7.03;100.00
60015;BME280;45867;52.480;6.056;2023-02-16T09:18:49;102268.72;;;6.99;100.00
60015;BME280;45867;52.480;6.056;2023-02-16T09:21:23;102265.03;;;7.00;100.00
60015;BME280;45867;52.480;6.056;2023-02-16T09:23:50;102268.09;;;6.97;100.00
60015;BME280;45867;52.480;6.056;2023-02-16T09:26:20;102258.97;;;6.93;100.00
60015;BME280;45867;52.480;6.056;2023-02-16T09:28:46;102269.13;;;6.89;100.00
60015;BME280;45867;52.480;6.056;2023-02-16T09:31:35;102265.88;;;6.94;100.00
60015;BME280;45867;52.480;6.056;2023-02-16T09:34:14;102266.72;;;6.87;100.00
60015;BME280;45867;52.480;6.056;2023-02-16T09:36:40;102269.34;;;6.87;100.00
60015;BME280;45867;52.480;6.056;2023-02-16T09:39:06;102273.59;;;6.88;100.00
60015;BME280;45867;52.480;6.056;2023-02-16T09:46:42;102270.75;;;6.83;100.00
60015;BME280;45867;52.480;6.056;2023-02-16T09:49:34;102271.97;;;6.81;100.00
60015;BME280;45867;52.480;6.056;2023-02-16T09:52:10;102274.22;;;6.77;100.00
60015;BME280;45867;52.480;6.056;2023-02-16T09:54:45;102275.81;;;6.78;100.00
60015;BME280;45867;52.480;6.056;2023-02-16T10:00:08;102268.34;;;6.62;100.00
60015;BME280;45867;52.480;6.056;2023-02-16T10:05:46;102273.81;;;6.54;100.00
60015;BME280;45867;52.480;6.056;2023-02-16T10:08:25;102273.63;;;6.55;100.00
60015;BME280;45867;52.480;6.056;2023-02-16T10:11:11;102262.06;;;6.56;100.00
60015;BME280;45867;52.480;6.056;2023-02-16T10:14:04;102265.09;;;6.66;100.00
60015;BME280;45867;52.480;6.056;2023-02-16T10:16:37;102259.44;;;6.63;100.00
60015;BME280;45867;52.480;6.056;2023-02-16T10:19:19;102261.06;;;6.64;100.00
60015;BME280;45867;52.480;6.056;2023-02-16T10:21:48;102255.19;;;6.69;100.00
60015;BME280;45867;52.480;6.056;2023-02-16T10:24:15;102246.28;;;6.63;100.00
60015;BME280;45867;52.480;6.056;2023-02-16T10:26:55;102250.50;;;6.64;100.00
60015;BME280;45867;52.480;6.056;2023-02-16T10:29:22;102251.13;;;6.59;100.00
60015;BME280;45867;52.480;6.056;2023-02-16T10:37:18;102261.66;;;6.66;100.00
60015;BME280;45867;52.480;6.056;2023-02-16T10:42:53;102268.94;;;6.77;100.00
60015;BME280;45867;52.480;6.056;2023-02-16T10:47:56;102249.28;;;6.73;100.00
60015;BME280;45867;52.480;6.056;2023-02-16T10:50:23;102252.53;;;6.69;100.00
60015;BME280;45867;52.480;6.056;2023-02-16T10:52:54;102254.56;;;6.66;100.00
60015;BME280;45867;52.480;6.056;2023-02-16T10:55:21;102260.25;;;6.63;100.00
60015;BME280;45867;52.480;6.056;2023-02-16T10:57:59;102255.97;;;6.62;100.00
60015;BME280;45867;52.480;6.056;2023-02-16T11:00:40;102260.44;;;6.62;100.00
60015;BME280;45867;52.480;6.056;2023-02-16T11:03:11;102253.56;;;6.61;100.00
60015;BME280;45867;52.480;6.056;2023-02-16T11:05:38;102257.19;;;6.66;100.00
60015;BME280;45867;52.480;6.056;2023-02-16T11:08:06;102253.16;;;6.64;100.00
60015;BME280;45867;52.480;6.056;2023-02-16T11:10:50;102251.13;;;6.66;100.00
60015;BME280;45867;52.480;6.056;2023-02-16T11:13:34;102262.03;;;6.76;100.00
60015;BME280;45867;52.480;6.056;2023-02-16T11:16:10;102255.97;;;6.82;100.00
60015;BME280;45867;52.480;6.056;2023-02-16T11:18:40;102250.28;;;6.85;100.00
60015;BME280;45867;52.480;6.056;2023-02-16T11:21:08;102251.13;;;6.79;100.00
60015;BME280;45867;52.480;6.056;2023-02-16T11:23:37;102248.66;;;6.84;100.00
60015;BME280;45867;52.480;6.056;2023-02-16T11:28:44;102245.41;;;6.96;100.00
60015;BME280;45867;52.480;6.056;2023-02-16T11:31:11;102247.16;;;7.08;100.00
60015;BME280;45867;52.480;6.056;2023-02-16T11:33:38;102236.63;;;7.08;100.00
60015;BME280;45867;52.480;6.056;2023-02-16T11:36:34;102233.16;;;7.21;100.00
60015;BME280;45867;52.480;6.056;2023-02-16T11:41:43;102236.34;;;7.37;100.00
60015;BME280;45867;52.480;6.056;2023-02-16T11:44:38;102219.00;;;7.47;100.00
60015;BME280;45867;52.480;6.056;2023-02-16T11:47:22;102212.50;;;7.50;100.00
60015;BME280;45867;52.480;6.056;2023-02-16T11:49:51;102202.63;;;7.45;100.00
60015;BME280;45867;52.480;6.056;2023-02-16T11:52:29;102214.72;;;7.60;100.00
60015;BME280;45867;52.480;6.056;2023-02-16T11:54:59;102207.16;;;7.63;100.00
60015;BME280;45867;52.480;6.056;2023-02-16T11:57:34;102204.53;;;7.63;100.00
60015;BME280;45867;52.480;6.056;2023-02-16T12:00:13;102207.88;;;7.84;100.00
60015;BME280;45867;52.480;6.056;2023-02-16T12:08:02;102196.25;;;8.16;100.00
60015;BME280;45867;52.480;6.056;2023-02-16T12:10:44;102185.56;;;8.30;100.00
60015;BME280;45867;52.480;6.056;2023-02-16T12:16:00;102173.69;;;8.82;100.00
60015;BME280;45867;52.480;6.056;2023-02-16T12:26:55;102155.16;;;9.61;100.00
60015;BME280;45867;52.480;6.056;2023-02-16T12:40:30;102138.25;;;10.68;100.00
60015;BME280;45867;52.480;6.056;2023-02-16T12:43:23;102128.94;;;10.54;100.00
60015;BME280;45867;52.480;6.056;2023-02-16T12:45:54;102117.69;;;10.23;100.00
60015;BME280;45867;52.480;6.056;2023-02-16T12:51:00;102111.28;;;11.00;100.00
60015;BME280;45867;52.480;6.056;2023-02-16T12:53:41;102121.44;;;11.65;100.00
60015;BME280;45867;52.480;6.056;2023-02-16T12:56:13;102112.38;;;11.95;100.00
60015;BME280;45867;52.480;6.056;2023-02-16T12:58:45;102119.03;;;12.14;100.00
60015;BME280;45867;52.480;6.056;2023-02-16T13:01:19;102114.00;;;13.33;100.00
60015;BME280;45867;52.480;6.056;2023-02-16T13:04:00;102108.31;;;13.51;100.00
60015;BME280;45867;52.480;6.056;2023-02-16T13:09:50;102119.19;;;12.69;100.00
60015;BME280;45867;52.480;6.056;2023-02-16T13:12:27;102103.00;;;11.75;100.00
60015;BME280;45867;52.480;6.056;2023-02-16T13:15:18;102100.44;;;11.47;100.00
60015;BME280;45867;52.480;6.056;2023-02-16T13:17:56;102106.59;;;12.86;100.00
60015;BME280;45867;52.480;6.056;2023-02-16T13:20:23;102094.03;;;13.68;100.00
60015;BME280;45867;52.480;6.056;2023-02-16T13:28:11;102105.50;;;11.65;100.00
60015;BME280;45867;52.480;6.056;2023-02-16T13:30:54;102103.16;;;11.52;100.00
60015;BME280;45867;52.480;6.056;2023-02-16T13:44:14;102077.56;;;11.96;100.00
60015;BME280;45867;52.480;6.056;2023-02-16T13:46:46;102077.41;;;11.86;100.00
60015;BME280;45867;52.480;6.056;2023-02-16T13:49:46;102075.56;;;11.19;100.00
60015;BME280;45867;52.480;6.056;2023-02-16T13:52:35;102073.97;;;10.89;100.00
60015;BME280;45867;52.480;6.056;2023-02-16T13:55:05;102063.47;;;11.11;100.00
60015;BME280;45867;52.480;6.056;2023-02-16T14:00:32;102049.72;;;11.15;100.00
60015;BME280;45867;52.480;6.056;2023-02-16T14:03:33;102035.16;;;10.83;100.00
60015;BME280;45867;52.480;6.056;2023-02-16T14:14:35;102050.09;;;10.89;100.00
60015;BME280;45867;52.480;6.056;2023-02-16T14:17:15;102043.97;;;10.72;100.00
60015;BME280;45867;52.480;6.056;2023-02-16T14:22:49;102039.84;;;10.53;100.00
60015;BME280;45867;52.480;6.056;2023-02-16T14:27:54;102032.94;;;9.99;100.00
60015;BME280;45867;52.480;6.056;2023-02-16T14:35:42;102027.75;;;9.93;100.00
60015;BME280;45867;52.480;6.056;2023-02-16T14:38:32;102009.56;;;9.73;100.00
60015;BME280;45867;52.480;6.056;2023-02-16T14:41:01;102009.69;;;9.78;100.00
60015;BME280;45867;52.480;6.056;2023-02-16T14:43:45;102025.00;;;9.76;100.00
60015;BME280;45867;52.480;6.056;2023-02-16T14:46:35;102009.56;;;9.73;100.00
60015;BME280;45867;52.480;6.056;2023-02-16T14:57:34;102023.28;;;9.58;100.00
60015;BME280;45867;52.480;6.056;2023-02-16T15:00:17;102012.78;;;9.51;100.00
60015;BME280;45867;52.480;6.056;2023-02-16T15:02:58;102016.56;;;9.44;100.00
60015;BME280;45867;52.480;6.056;2023-02-16T15:05:33;102015.22;;;9.41;100.00
60015;BME280;45867;52.480;6.056;2023-02-16T15:08:16;102004.59;;;9.29;100.00
60015;BME280;45867;52.480;6.056;2023-02-16T15:10:45;102014.06;;;9.37;100.00
60015;BME280;45867;52.480;6.056;2023-02-16T15:13:28;102022.00;;;9.37;100.00
60015;BME280;45867;52.480;6.056;2023-02-16T15:15:56;102018.31;;;9.38;100.00
60015;BME280;45867;52.480;6.056;2023-02-16T15:18:26;102022.69;;;9.44;100.00
60015;BME280;45867;52.480;6.056;2023-02-16T15:20:55;102019.34;;;9.49;100.00
60015;BME280;45867;52.480;6.056;2023-02-16T15:23:25;102010.16;;;9.40;100.00